Time;durP1;ratioP1;P1;durP2;ratioP2;P2;SDS_P1;SDS_P2;PMS_P1;PMS_P2;Temp;Humidity;BMP_temperature;BMP_pressure;BME280_temperature;BME280_humidity;BME280_pressure;Samples;Min_cycle;Max_cycle;Signal;HPM_P1;HPM_P2
2023/04/19 00:01:07;;;;;;;;;;;;;;;8.30;100.00;96325.78;5074332;28;19928;-76
2023/04/19 00:03:33;;;;;;;;;;;;;;;8.23;100.00;96323.50;5068627;28;20298;-76
2023/04/19 00:05:59;;;;;;;;;;;;;;;8.13;100.00;96317.06;5072472;28;19921;-76
2023/04/19 00:08:25;;;;;;;;;;;;;;;8.21;100.00;96316.72;5062935;28;19933;-76
2023/04/19 00:10:53;;;;;;;;;;;;;;;8.14;100.00;96312.72;5071384;28;19921;-76
2023/04/19 00:13:20;;;;;;;;;;;;;;;8.06;100.00;96312.25;5070696;28;19925;-76
2023/04/19 00:15:47;;;;;;;;;;;;;;;8.00;100.00;96314.16;5055250;28;20644;-76
2023/04/19 00:18:13;;;;;;;;;;;;;;;8.09;100.00;96312.13;5072591;28;19920;-76
2023/04/19 00:20:39;;;;;;;;;;;;;;;8.14;100.00;96320.47;5064635;28;19921;-76
2023/04/19 00:23:05;;;;;;;;;;;;;;;8.12;100.00;96315.41;5074381;28;20019;-76
2023/04/19 00:25:33;;;;;;;;;;;;;;;8.16;100.00;96311.78;5065537;28;19921;-76
2023/04/19 00:28:01;;;;;;;;;;;;;;;8.03;100.00;96307.22;5078617;28;19920;-76
2023/04/19 00:30:27;;;;;;;;;;;;;;;8.05;100.00;96310.56;5067668;28;19920;-76
2023/04/19 00:32:53;;;;;;;;;;;;;;;8.00;100.00;96306.44;5068838;28;19920;-76
2023/04/19 00:35:20;;;;;;;;;;;;;;;8.05;100.00;96303.66;5067558;28;19955;-76
2023/04/19 00:37:46;;;;;;;;;;;;;;;7.97;100.00;96305.72;5075675;28;19925;-77
2023/04/19 00:40:12;;;;;;;;;;;;;;;7.92;100.00;96299.94;5079747;28;19923;-76
2023/04/19 00:42:38;;;;;;;;;;;;;;;7.91;100.00;96301.69;5080802;28;19931;-76
2023/04/19 00:45:07;;;;;;;;;;;;;;;7.94;100.00;96303.31;5087503;28;19920;-76
2023/04/19 00:47:33;;;;;;;;;;;;;;;7.91;100.00;96308.59;5076904;28;19924;-76
2023/04/19 00:50:00;;;;;;;;;;;;;;;7.89;100.00;96300.91;5088979;28;19927;-75
2023/04/19 00:52:26;;;;;;;;;;;;;;;7.94;100.00;96298.16;5075997;28;19921;-76
2023/04/19 00:54:53;;;;;;;;;;;;;;;7.90;100.00;96300.03;5083821;28;19927;-76
2023/04/19 00:57:20;;;;;;;;;;;;;;;7.91;100.00;96293.94;5081809;28;19927;-76
2023/04/19 00:59:47;;;;;;;;;;;;;;;7.95;100.00;96295.50;5080042;28;20362;-76
2023/04/19 01:02:15;;;;;;;;;;;;;;;7.79;100.00;96294.50;5080214;28;19946;-76
2023/04/19 01:04:41;;;;;;;;;;;;;;;7.67;100.00;96288.09;5071176;28;20276;-76
2023/04/19 01:07:08;;;;;;;;;;;;;;;7.92;100.00;96285.31;5083277;28;19920;-76
2023/04/19 01:09:34;;;;;;;;;;;;;;;7.74;100.00;96293.84;5071909;28;19921;-76
2023/04/19 01:12:02;;;;;;;16.63;14.73;;;;;;;7.87;100.00;96289.84;5081004;28;19931;-76
2023/04/19 01:14:28;;;;;;;15.27;13.70;;;;;;;7.72;100.00;96287.94;5066202;28;20075;-76
2023/04/19 01:16:56;;;;;;;18.05;14.05;;;;;;;7.67;100.00;96279.53;5067212;28;20052;-76
2023/04/19 01:19:24;;;;;;;17.60;14.75;;;;;;;7.71;100.00;96288.81;5074040;28;20522;-75
2023/04/19 01:21:51;;;;;;;;;;;;;;;7.58;100.00;96278.19;5067979;28;20051;-75
2023/04/19 01:24:19;;;;;;;;;;;;;;;7.86;100.00;96283.00;5070482;28;19928;-76
2023/04/19 01:26:45;;;;;;;18.55;14.25;;;;;;;7.70;100.00;96277.66;5058852;28;19924;-76
2023/04/19 01:29:12;;;;;;;20.15;15.00;;;;;;;7.98;100.00;96279.88;5070799;28;20052;-76
2023/04/19 01:31:38;;;;;;;;;;;;;;;7.71;100.00;96271.63;5077888;28;20056;-76
2023/04/19 01:34:05;;;;;;;18.35;14.43;;;;;;;7.87;100.00;96270.94;5069254;28;19920;-76
2023/04/19 01:36:31;;;;;;;18.00;15.45;;;;;;;7.66;100.00;96267.56;5068612;28;20082;-76
2023/04/19 01:38:58;;;;;;;15.73;13.82;;;;;;;7.63;100.00;96268.50;5078253;28;20045;-76
2023/04/19 01:41:26;;;;;;;16.52;14.77;;;;;;;7.57;100.00;96258.50;5075531;28;20045;-76
2023/04/19 01:43:52;;;;;;;;;;;;;;;7.68;100.00;96268.34;5076198;28;20101;-76
2023/04/19 01:46:19;;;;;;;16.45;14.30;;;;;;;7.61;100.00;96262.59;5058981;28;19920;-76
2023/04/19 01:48:45;;;;;;;16.73;14.15;;;;;;;7.59;100.00;96258.41;5073598;28;20080;-76
2023/04/19 01:51:12;;;;;;;21.45;15.77;;;;;;;7.46;100.00;96258.94;5074614;28;20049;-76
2023/04/19 01:53:38;;;;;;;16.15;14.27;;;;;;;7.48;100.00;96256.28;5084306;28;20048;-76
2023/04/19 01:56:05;;;;;;;21.50;14.95;;;;;;;7.62;100.00;96263.44;5068267;28;20053;-76
2023/04/19 01:58:33;;;;;;;22.90;15.50;;;;;;;7.50;100.00;96252.75;5067159;28;20049;-76
2023/04/19 02:00:59;;;;;;;17.48;13.63;;;;;;;7.63;100.00;96252.22;5077853;28;20056;-76
2023/04/19 02:03:26;;;;;;;;;;;;;;;7.62;100.00;96246.22;5072833;28;20080;-76
2023/04/19 02:05:52;;;;;;;19.65;15.43;;;;;;;7.55;100.00;96244.81;5078183;28;20386;-76
2023/04/19 02:08:18;;;;;;;;;;;;;;;7.62;100.00;96245.41;5067844;28;20041;-76
2023/04/19 02:10:45;;;;;;;20.77;16.13;;;;;;;7.61;100.00;96238.56;5077289;28;19929;-76
2023/04/19 02:13:11;;;;;;;20.55;15.15;;;;;;;7.45;100.00;96241.81;5065997;28;20056;-75
2023/04/19 02:15:39;;;;;;;21.30;16.05;;;;;;;7.55;100.00;96233.69;5063104;28;20060;-75
2023/04/19 02:18:06;;;;;;;17.73;15.75;;;;;;;7.49;100.00;96240.78;5065538;28;20055;-75
2023/04/19 02:20:33;;;;;;;22.30;15.13;;;;;;;7.39;100.00;96243.81;5067378;28;20767;-76
2023/04/19 02:22:59;;;;;;;17.33;14.68;;;;;;;7.61;100.00;96233.41;5070840;28;20391;-76
2023/04/19 02:25:26;;;;;;;20.00;15.70;;;;;;;7.61;100.00;96225.69;5067917;28;20052;-75
2023/04/19 02:27:52;;;;;;;16.70;15.00;;;;;;;7.42;100.00;96228.22;5066490;28;20036;-76
2023/04/19 02:30:19;;;;;;;18.67;15.77;;;;;;;7.47;100.00;96234.84;5068091;28;20048;-76
2023/04/19 02:32:48;;;;;;;19.42;15.80;;;;;;;7.55;100.00;96231.09;5057817;28;20047;-76
2023/04/19 02:35:15;;;;;;;20.48;17.13;;;;;;;7.62;100.00;96229.94;5068198;28;20056;-76
2023/04/19 02:37:42;;;;;;;19.73;16.63;;;;;;;7.63;100.00;96226.44;5069299;28;20047;-76
2023/04/19 02:40:09;;;;;;;20.05;15.50;;;;;;;7.64;100.00;96221.22;5075251;28;20051;-76
2023/04/19 02:42:36;;;;;;;21.27;16.45;;;;;;;7.46;100.00;96225.44;5069748;28;20053;-76
2023/04/19 02:45:02;;;;;;;19.92;15.70;;;;;;;7.35;100.00;96227.66;5065857;28;20675;-76
2023/04/19 02:47:29;;;;;;;18.55;15.05;;;;;;;7.45;100.00;96218.63;5065565;28;20049;-76
2023/04/19 02:49:57;;;;;;;23.60;16.85;;;;;;;7.50;100.00;96213.25;5079644;28;20105;-76
2023/04/19 02:52:23;;;;;;;18.63;16.65;;;;;;;7.42;100.00;96215.34;5077473;28;20383;-76
2023/04/19 02:54:50;;;;;;;20.40;15.98;;;;;;;7.37;100.00;96214.69;5081834;28;20067;-76
2023/04/19 02:57:16;;;;;;;23.35;16.73;;;;;;;7.35;100.00;96213.94;5073429;28;20067;-75
2023/04/19 02:59:42;;;;;;;20.30;16.23;;;;;;;7.40;100.00;96215.38;5071504;28;20059;-76
2023/04/19 03:02:09;;;;;;;23.25;16.83;;;;;;;7.52;100.00;96211.44;5073989;28;20044;-76
2023/04/19 03:04:36;;;;;;;22.80;16.63;;;;;;;7.37;100.00;96212.94;5069920;28;20507;-76
2023/04/19 03:07:04;;;;;;;21.77;17.08;;;;;;;7.31;100.00;96210.66;5062992;28;20491;-76
2023/04/19 03:09:31;;;;;;;19.42;16.38;;;;;;;7.25;100.00;96218.63;5072714;28;20319;-76
2023/04/19 03:11:57;;;;;;;20.98;17.35;;;;;;;7.19;100.00;96213.72;5080487;28;20409;-76
2023/04/19 03:14:24;;;;;;;27.05;16.20;;;;;;;7.12;100.00;96210.59;5070346;28;20465;-76
2023/04/19 03:16:50;;;;;;;20.73;17.50;;;;;;;7.15;100.00;96218.16;5070012;28;20414;-75
2023/04/19 03:19:17;;;;;;;19.98;16.38;;;;;;;7.07;100.00;96211.66;5071673;28;20412;-75
2023/04/19 03:21:43;;;;;;;25.25;16.00;;;;;;;7.12;100.00;96214.88;5075434;28;20403;-76
2023/04/19 03:24:11;;;;;;;19.52;15.68;;;;;;;7.25;100.00;96205.75;5066110;28;20044;-76
2023/04/19 03:26:38;;;;;;;19.85;16.58;;;;;;;7.23;100.00;96205.81;5074310;28;20051;-76
2023/04/19 03:29:05;;;;;;;21.30;16.95;;;;;;;7.27;100.00;96201.38;5072340;28;20095;-76
2023/04/19 03:31:31;;;;;;;25.60;17.42;;;;;;;7.36;100.00;96206.13;5075485;28;20121;-76
2023/04/19 03:33:57;;;;;;;24.42;17.58;;;;;;;7.20;100.00;96210.25;5066677;28;20067;-76
2023/04/19 03:36:25;;;;;;;18.80;16.52;;;;;;;7.21;100.00;96205.03;5075876;28;20051;-76
2023/04/19 03:38:52;;;;;;;22.60;17.90;;;;;;;7.26;100.00;96204.84;5071099;28;20098;-76
2023/04/19 03:41:20;;;;;;;25.48;17.35;;;;;;;7.19;100.00;96203.41;5069394;28;20051;-75
2023/04/19 03:43:46;;;;;;;18.92;15.27;;;;;;;7.17;100.00;96194.94;5066386;28;20144;-75
2023/04/19 03:46:13;;;;;;;24.98;18.13;;;;;;;7.22;100.00;96201.56;5057104;28;20048;-76
2023/04/19 03:48:39;;;;;;;23.85;18.67;;;;;;;7.37;100.00;96192.31;5070494;28;20051;-76
2023/04/19 03:51:06;;;;;;;24.60;17.52;;;;;;;7.26;100.00;96197.09;5070276;28;20052;-75
2023/04/19 03:53:32;;;;;;;22.33;16.00;;;;;;;7.17;100.00;96192.34;5073971;28;20048;-76
2023/04/19 03:55:59;;;;;;;20.80;17.00;;;;;;;7.16;100.00;96188.13;5063880;28;20518;-76
2023/04/19 03:58:27;;;;;;;18.35;15.60;;;;;;;7.08;100.00;96191.00;5064762;28;20076;-75
2023/04/19 04:00:54;;;;;;;21.30;16.95;;;;;;;7.27;100.00;96185.91;5066219;28;20136;-76
2023/04/19 04:03:20;;;;;;;20.80;18.17;;;;;;;7.32;100.00;96191.69;5067078;28;20091;-76
2023/04/19 04:05:48;;;;;;;23.80;19.45;;;;;;;7.33;100.00;96187.38;5069939;28;20047;-76
2023/04/19 04:08:14;;;;;;;22.90;18.02;;;;;;;7.27;100.00;96193.66;5058497;28;20045;-76
2023/04/19 04:10:41;;;;;;;21.30;18.73;;;;;;;7.24;100.00;96196.34;5078788;28;20051;-76
2023/04/19 04:13:08;;;;;;;26.85;20.00;;;;;;;7.31;100.00;96197.75;5073136;28;20102;-76
2023/04/19 04:15:35;;;;;;;23.13;17.85;;;;;;;7.21;100.00;96189.59;5064815;28;20053;-76
2023/04/19 04:18:02;;;;;;;23.83;18.70;;;;;;;7.07;100.00;96191.91;5081484;28;20044;-76
2023/04/19 04:20:28;;;;;;;25.92;19.80;;;;;;;7.10;100.00;96206.41;5073198;28;20049;-76
2023/04/19 04:22:55;;;;;;;25.83;18.23;;;;;;;7.14;100.00;96192.47;5076727;28;20045;-76
2023/04/19 04:25:21;;;;;;;22.20;19.13;;;;;;;7.15;100.00;96200.13;5077824;28;20044;-76
2023/04/19 04:27:50;;;;;;;24.52;17.88;;;;;;;7.07;100.00;96198.78;5074701;28;20044;-76
2023/04/19 04:30:17;;;;;;;26.17;19.08;;;;;;;7.14;100.00;96205.38;5064144;28;20510;-76
2023/04/19 04:32:46;;;;;;;24.50;20.38;;;;;;;7.00;100.00;96208.50;5064629;28;20055;-76
2023/04/19 04:35:12;;;;;;;22.52;17.60;;;;;;;7.07;100.00;96203.94;5064386;28;20435;-76
2023/04/19 04:37:39;;;;;;;21.33;18.42;;;;;;;7.24;100.00;96204.06;5056727;28;20052;-75
2023/04/19 04:40:07;;;;;;;21.52;18.17;;;;;;;7.14;100.00;96203.63;5070187;28;20044;-75
2023/04/19 04:42:34;;;;;;;27.02;19.70;;;;;;;7.11;100.00;96202.91;5075278;28;20049;-75
2023/04/19 04:45:00;;;;;;;25.20;19.90;;;;;;;7.00;100.00;96199.03;5085131;28;20506;-75
2023/04/19 04:47:31;;;;;;;24.65;19.02;;;;;;;7.04;100.00;96202.31;5069156;28;20392;-76
2023/04/19 04:49:59;;;;;;;31.40;20.25;;;;;;;7.16;100.00;96203.56;5066565;28;20123;-76
2023/04/19 04:52:25;;;;;;;24.45;19.27;;;;;;;7.10;100.00;96207.22;5066882;28;20203;-76
2023/04/19 04:54:52;;;;;;;22.63;19.27;;;;;;;6.99;100.00;96212.81;5075448;28;20044;-76
2023/04/19 04:57:18;;;;;;;23.23;18.63;;;;;;;7.12;100.00;96202.00;5058607;28;20049;-76
2023/04/19 04:59:45;;;;;;;22.38;18.85;;;;;;;7.01;100.00;96200.72;5061255;28;20049;-76
2023/04/19 05:02:11;;;;;;;23.95;20.50;;;;;;;7.02;100.00;96204.97;5060626;28;20531;-76
2023/04/19 05:04:38;;;;;;;27.70;20.35;;;;;;;7.19;100.00;96206.84;5061842;28;20515;-76
2023/04/19 05:07:05;;;;;;;25.58;19.58;;;;;;;7.01;100.00;96205.88;5071444;28;20510;-77
2023/04/19 05:09:32;;;;;;;21.63;19.30;;;;;;;7.19;100.00;96196.56;5063378;28;20041;-77
2023/04/19 05:11:58;;;;;;;23.00;20.05;;;;;;;7.15;100.00;96204.44;5056113;28;20056;-77
2023/04/19 05:14:25;;;;;;;27.67;21.33;;;;;;;7.11;100.00;96201.16;5060648;28;20049;-77
2023/04/19 05:16:51;;;;;;;30.98;21.38;;;;;;;7.08;100.00;96203.88;5068587;28;20051;-76
2023/04/19 05:19:18;;;;;;;24.00;19.52;;;;;;;7.09;100.00;96212.47;5055786;28;20058;-76
2023/04/19 05:21:44;;;;;;;21.88;19.60;;;;;;;7.13;100.00;96207.09;5063361;28;20501;-76
2023/04/19 05:24:12;;;;;;;31.92;20.23;;;;;;;7.08;100.00;96208.19;5064663;28;20510;-76
2023/04/19 05:26:38;;;;;;;24.02;20.38;;;;;;;7.23;100.00;96197.22;5064850;28;20053;-77
2023/04/19 05:29:05;;;;;;;26.85;19.40;;;;;;;7.20;100.00;96208.53;5080705;28;20044;-77
2023/04/19 05:31:31;;;;;;;27.13;20.90;;;;;;;7.33;100.00;96202.84;5071001;28;20045;-76
2023/04/19 05:33:58;;;;;;;24.83;20.30;;;;;;;7.17;100.00;96207.81;5075851;28;20044;-77
2023/04/19 05:36:25;;;;;;;22.02;19.63;;;;;;;7.28;100.00;96203.88;5074902;28;20052;-77
2023/04/19 05:38:52;;;;;;;23.92;20.73;;;;;;;7.41;100.00;96204.16;5071330;28;20045;-76
2023/04/19 05:41:20;;;;;;;28.10;19.33;;;;;;;7.40;100.00;96206.81;5078393;28;20056;-77
2023/04/19 05:43:46;;;;;;;23.38;19.35;;;;;;;7.37;100.00;96212.09;5072783;28;20490;-77
2023/04/19 05:46:14;;;;;;;26.02;21.02;;;;;;;7.32;100.00;96212.31;5077406;28;20056;-75
2023/04/19 05:48:40;;;;;;;21.85;19.45;;;;;;;7.34;100.00;96215.66;5085433;28;20139;-76
2023/04/19 05:51:07;;;;;;;23.52;20.92;;;;;;;7.44;100.00;96216.09;5077677;28;20051;-77
2023/04/19 05:53:33;;;;;;;24.83;21.13;;;;;;;7.31;100.00;96220.94;5081217;28;20049;-77
2023/04/19 05:56:00;;;;;;;25.50;20.83;;;;;;;7.21;100.00;96224.81;5077328;28;20059;-77
2023/04/19 05:58:27;;;;;;;25.05;19.67;;;;;;;7.21;100.00;96214.50;5072775;28;20491;-76
2023/04/19 06:00:54;;;;;;;24.13;21.55;;;;;;;7.25;100.00;96227.19;5072503;28;20075;-76
2023/04/19 06:03:20;;;;;;;27.75;21.42;;;;;;;7.07;100.00;96224.53;5068228;28;20048;-76
2023/04/19 06:05:47;;;;;;;23.63;20.15;;;;;;;6.96;100.00;96230.97;5070934;28;20048;-77
2023/04/19 06:08:15;;;;;;;28.10;20.55;;;;;;;7.12;100.00;96226.03;5062031;28;20060;-77
2023/04/19 06:10:42;;;;;;;31.27;18.70;;;;;;;7.20;100.00;96230.88;5080342;28;20112;-77
2023/04/19 06:13:09;;;;;;;21.58;18.20;;;;;;;7.12;100.00;96236.34;5064851;28;20059;-76
2023/04/19 06:15:38;;;;;;;21.95;18.85;;;;;;;7.19;100.00;96237.78;5071423;28;20499;-76
2023/04/19 06:18:08;;;;;;;24.15;19.15;;;;;;;7.21;100.00;96240.28;5065230;28;20159;-76
2023/04/19 06:20:35;;;;;;;20.90;18.60;;;;;;;7.04;100.00;96233.22;5076772;28;20502;-77
2023/04/19 06:23:01;;;;;;;21.52;19.25;;;;;;;7.20;100.00;96236.03;5077574;28;20040;-77
2023/04/19 06:25:28;;;;;;;22.88;18.98;;;;;;;7.19;100.00;96235.19;5067686;28;20048;-77
2023/04/19 06:27:54;;;;;;;20.63;18.15;;;;;;;7.11;100.00;96241.53;5068196;28;20048;-77
2023/04/19 06:30:21;;;;;;;22.05;19.48;;;;;;;7.29;100.00;96245.94;5058601;28;20045;-76
2023/04/19 06:32:49;;;;;;;23.65;20.23;;;;;;;7.26;100.00;96243.47;5056762;28;20052;-75
2023/04/19 06:35:15;;;;;;;20.73;18.63;;;;;;;7.31;100.00;96241.56;5064682;28;20048;-76
2023/04/19 06:37:42;;;;;;;23.55;19.38;;;;;;;7.30;100.00;96228.72;5070337;28;20535;-76
2023/04/19 06:40:10;;;;;;;24.88;19.45;;;;;;;7.32;100.00;96227.78;5060270;28;20048;-77
2023/04/19 06:42:37;;;;;;;28.33;20.45;;;;;;;7.42;100.00;96233.38;5076803;28;20049;-77
2023/04/19 06:45:04;;;;;;;30.55;21.85;;;;;;;7.41;100.00;96224.78;5059643;28;20052;-76
2023/04/19 06:47:31;;;;;;;25.55;22.27;;;;;;;7.46;100.00;96224.63;5068819;28;20132;-76
2023/04/19 06:49:59;;;;;;;26.38;22.73;;;;;;;7.54;100.00;96222.53;5075007;28;20051;-77
2023/04/19 06:52:26;;;;;;;29.85;24.17;;;;;;;7.64;100.00;96218.66;5066732;28;20052;-77
2023/04/19 06:54:52;;;;;;;28.02;21.30;;;;;;;7.44;100.00;96227.22;5082026;28;20055;-76
2023/04/19 06:57:19;;;;;;;25.92;20.40;;;;;;;7.64;100.00;96218.66;5070968;28;20044;-76
2023/04/19 06:59:45;;;;;;;22.95;20.58;;;;;;;7.84;100.00;96206.63;5060927;28;20384;-76
2023/04/19 07:02:12;;;;;;;23.88;20.15;;;;;;;7.86;100.00;96218.53;5070924;28;20071;-76
2023/04/19 07:04:38;;;;;;;21.42;19.23;;;;;;;7.83;100.00;96217.84;5070906;28;20082;-76
2023/04/19 07:07:06;;;;;;;24.85;21.65;;;;;;;7.86;100.00;96204.78;5072592;28;20048;-76
2023/04/19 07:09:32;;;;;;;23.48;19.02;;;;;;;7.91;100.00;96214.00;5074174;28;20048;-76
2023/04/19 07:12:00;;;;;;;23.88;19.52;;;;;;;8.11;100.00;96217.41;5072303;28;20051;-77
2023/04/19 07:14:26;;;;;;;27.92;20.52;;;;;;;8.11;100.00;96220.81;5073807;28;20049;-76
2023/04/19 07:16:53;;;;;;;24.90;18.30;;;;;;;7.75;100.00;96215.59;5058053;28;20045;-76
2023/04/19 07:19:21;;;;;;;21.50;17.58;;;;;;;7.97;100.00;96212.88;5072567;28;20044;-76
2023/04/19 07:21:48;;;;;;;33.95;18.05;;;;;;;8.14;100.00;96210.38;5065234;28;20043;-76
2023/04/19 07:24:16;;;;;;;19.40;17.30;;;;;;;8.08;100.00;96222.69;5079369;28;20048;-76
2023/04/19 07:26:42;;;;;;;19.75;17.75;;;;;;;8.18;100.00;96211.91;5076131;28;20502;-76
2023/04/19 07:29:09;;;;;;;21.38;18.48;;;;;;;8.19;100.00;96211.00;5081132;28;20063;-76
2023/04/19 07:31:36;;;;;;;29.20;17.88;;;;;;;8.12;100.00;96216.50;5066648;28;20061;-77
2023/04/19 07:34:02;;;;;;;28.48;18.38;;;;;;;8.24;100.00;96213.38;5081654;28;20048;-76
2023/04/19 07:36:30;;;;;;;29.50;17.75;;;;;;;8.11;100.00;96217.41;5069798;28;20045;-76
2023/04/19 07:38:57;;;;;;;19.77;15.35;;;;;;;8.19;100.00;96208.44;5063836;28;20490;-75
2023/04/19 07:41:24;;;;;;;19.65;15.05;;;;;;;8.20;100.00;96207.50;5066230;28;20056;-75
2023/04/19 07:43:51;;;;;;;17.65;13.93;;;;;;;8.26;100.00;96206.38;5073210;28;20055;-75
2023/04/19 07:46:17;;;;;;;18.45;14.48;;;;;;;8.37;100.00;96213.63;5068748;28;20044;-76
2023/04/19 07:48:45;;;;;;;19.60;14.13;;;;;;;8.44;100.00;96207.28;5070987;28;20498;-75
2023/04/19 07:51:12;;;;;;;20.90;14.05;;;;;;;8.58;100.00;96201.47;5065062;28;20055;-75
2023/04/19 07:53:41;;;;;;;22.17;14.88;;;;;;;8.63;100.00;96204.66;5077194;28;20048;-76
2023/04/19 07:56:08;;;;;;;19.05;13.80;;;;;;;8.70;100.00;96203.47;5071697;28;20068;-75
2023/04/19 07:58:37;;;;;;;21.23;13.65;;;;;;;8.86;100.00;96198.38;5072079;28;20049;-75
2023/04/19 08:01:04;;;;;;;16.23;13.48;;;;;;;9.02;100.00;96196.72;5067760;28;20385;-75
2023/04/19 08:03:30;;;;;;;;;;;;;;;9.30;100.00;96203.91;5057145;28;20102;-76
2023/04/19 08:05:57;;;;;;;;;;;;;;;9.38;100.00;96198.34;5068163;28;20012;-76
2023/04/19 08:08:24;;;;;;;17.13;14.27;;;;;;;9.53;100.00;96196.72;5074801;28;19927;-76
2023/04/19 08:10:53;;;;;;;19.37;14.33;;;;;;;9.55;100.00;96200.91;5067132;28;24596;-76
2023/04/19 08:13:20;;;;;;;17.75;13.57;;;;;;;9.30;100.00;96196.16;5064022;28;24448;-76
2023/04/19 08:15:47;;;;;;;14.82;12.45;;;;;;;9.36;100.00;96195.84;5059901;28;24434;-76
2023/04/19 08:18:14;;;;;;;13.93;11.73;;;;;;;9.50;100.00;96195.16;5066947;28;24443;-77
2023/04/19 08:20:41;;;;;;;14.80;13.20;;;;;;;9.50;100.00;96191.75;5069991;28;24438;-77
2023/04/19 08:23:08;;;;;;;15.10;13.00;;;;;;;9.51;100.00;96186.47;5075828;28;24485;-77
2023/04/19 08:25:35;;;;;;;18.35;13.35;;;;;;;9.56;100.00;96191.41;5070641;28;24430;-77
2023/04/19 08:28:01;;;;;;;15.35;13.85;;;;;;;9.74;100.00;96185.28;5068803;28;20765;-71
2023/04/19 08:30:28;;;;;;;14.85;13.38;;;;;;;9.61;100.00;96189.44;5068544;28;20786;-77
2023/04/19 08:32:56;;;;;;;14.00;12.40;;;;;;;9.25;100.00;96187.81;5071071;28;20768;-76
2023/04/19 08:35:24;;;;;;;14.63;11.43;;;;;;;9.45;100.00;96195.41;5066417;28;24430;-76
2023/04/19 08:37:50;;;;;;;16.27;12.13;;;;;;;9.71;100.00;96190.59;5064110;28;20854;-75
2023/04/19 08:40:17;;;;;;;12.93;11.63;;;;;;;9.69;100.00;96192.44;5074094;28;20781;-75
2023/04/19 08:42:43;;;;;;;13.88;11.77;;;;;;;9.97;100.00;96189.22;5065502;28;20767;-75
2023/04/19 08:45:12;;;;;;;13.70;12.23;;;;;;;10.32;100.00;96197.69;5073131;28;20848;-74
2023/04/19 08:47:40;;;;;;;14.07;12.20;;;;;;;10.26;100.00;96192.03;5070586;28;20802;-75
2023/04/19 08:50:08;;;;;;;12.93;11.43;;;;;;;10.23;100.00;96189.56;5074198;28;20825;-78
2023/04/19 08:52:37;;;;;;;14.45;11.05;;;;;;;10.23;100.00;96190.38;5060960;28;20824;-77
2023/04/19 08:55:05;;;;;;;15.98;11.65;;;;;;;10.35;100.00;96189.78;5080040;28;20804;-76
2023/04/19 08:57:31;;;;;;;16.77;11.57;;;;;;;10.52;100.00;96183.63;5069533;28;24510;-76
2023/04/19 08:59:58;;;;;;;12.80;10.55;;;;;;;10.63;100.00;96185.63;5078487;28;25004;-77
2023/04/19 09:02:24;;;;;;;15.65;10.50;;;;;;;10.45;100.00;96178.88;5078250;28;24446;-78
2023/04/19 09:04:51;;;;;;;12.55;11.15;;;;;;;10.75;100.00;96173.72;5075335;28;21107;-77
2023/04/19 09:07:26;;;;;;;11.77;10.57;;;;;;;10.60;100.00;96172.84;5067207;28;21332;-77
2023/04/19 09:10:06;;;;;;;11.20;9.65;;;;;;;10.70;100.00;96174.00;5078841;28;20665;-78
2023/04/19 09:12:33;;;;;;;12.02;10.77;;;;;;;10.58;100.00;96175.53;5081877;28;20649;-76
2023/04/19 09:15:01;;;;;;;14.93;10.70;;;;;;;10.81;100.00;96163.03;5076128;28;20785;-75
2023/04/19 09:17:27;;;;;;;17.00;10.48;;;;;;;10.87;100.00;96171.28;5076174;28;21125;-77
2023/04/19 09:19:54;;;;;;;12.82;10.18;;;;;;;10.85;100.00;96167.94;5068273;28;24505;-76
2023/04/19 09:22:20;;;;;;;12.60;9.82;;;;;;;10.92;100.00;96158.06;5080610;28;24449;-77
2023/04/19 09:24:48;;;;;;;12.85;9.35;;;;;;;11.23;100.00;96149.31;5079553;28;24441;-77
2023/04/19 09:27:24;;;;;;;11.88;9.23;;;;;;;11.01;100.00;96169.66;5078209;28;24445;-76
2023/04/19 09:29:53;;;;;;;13.00;10.00;;;;;;;10.97;100.00;96168.97;5078019;28;21183;-77
2023/04/19 09:32:19;;;;;;;11.87;9.67;;;;;;;11.01;100.00;96144.59;5074680;28;24434;-77
2023/04/19 09:34:51;;;;;;;13.27;10.82;;;;;;;10.71;100.00;96154.94;5064151;28;20767;-78
2023/04/19 09:37:18;;;;;;;17.30;11.23;;;;;;;10.77;100.00;96141.66;5074534;28;20747;-77
2023/04/19 09:39:45;;;;;;;11.95;10.65;;;;;;;10.89;100.00;96156.47;5074356;28;20776;-76
2023/04/19 09:42:12;;;;;;;14.52;10.88;;;;;;;11.03;100.00;96145.31;5071851;28;24436;-77
2023/04/19 09:44:39;;;;;;;13.30;10.68;;;;;;;11.11;100.00;96145.69;5074136;28;20812;-79
2023/04/19 09:47:22;;;;;;;13.73;10.40;;;;;;;11.29;100.00;96140.34;5069861;28;21236;-78
2023/04/19 09:50:03;;;;;;;12.50;10.07;;;;;;;11.07;100.00;96140.78;5073509;28;21359;-78
2023/04/19 09:52:30;;;;;;;12.20;10.90;;;;;;;11.26;100.00;96135.34;5072077;28;20777;-78
2023/04/19 09:55:00;;;;;;;14.23;10.43;;;;;;;11.16;100.00;96140.25;5074680;28;25004;-76
2023/04/19 09:57:28;;;;;;;14.23;10.90;;;;;;;11.51;100.00;96132.13;5063465;28;20786;-75
2023/04/19 09:59:54;;;;;;;18.02;9.98;;;;;;;11.48;100.00;96127.09;5066431;28;24437;-77
2023/04/19 10:02:22;;;;;;;10.95;9.85;;;;;;;11.29;100.00;96130.81;5079158;28;24909;-77
2023/04/19 10:04:49;;;;;;;12.13;10.30;;;;;;;11.18;100.00;96132.38;5064486;28;24461;-77
2023/04/19 10:07:15;;;;;;;10.68;9.57;;;;;;;11.25;100.00;96128.50;5078557;28;24445;-77
2023/04/19 10:09:44;;;;;;;12.70;10.73;;;;;;;10.94;100.00;96122.53;5075631;28;24428;-78
2023/04/19 10:12:11;;;;;;;12.63;10.27;;;;;;;11.06;100.00;96123.56;5078900;28;24809;-78
2023/04/19 10:14:40;;;;;;;13.85;10.60;;;;;;;11.24;100.00;96130.25;5069489;28;24976;-78
2023/04/19 10:17:06;;;;;;;13.00;10.13;;;;;;;10.82;100.00;96131.00;5082449;28;24445;-78
2023/04/19 10:19:37;;;;;;;12.50;9.85;;;;;;;10.90;100.00;96126.22;5073318;28;25012;-78
2023/04/19 10:22:05;;;;;;;12.15;10.65;;;;;;;11.00;100.00;96119.56;5068526;28;24441;-77
2023/04/19 10:24:33;;;;;;;12.80;10.13;;;;;;;10.64;100.00;96130.31;5067884;28;24431;-75
2023/04/19 10:27:10;;;;;;;10.13;9.02;;;;;;;10.92;100.00;96119.19;5082191;28;24944;-77
2023/04/19 10:29:57;;;;;;;12.13;9.50;;;;;;;10.77;100.00;96131.28;5075686;28;24452;-76
2023/04/19 10:32:24;;;;;;;11.60;9.57;;;;;;;11.08;100.00;96124.31;5079162;28;24466;-77
2023/04/19 10:34:53;;;;;;;10.35;9.32;;;;;;;10.81;100.00;96129.34;5072810;28;25052;-77
2023/04/19 10:37:23;;;;;;;10.02;8.65;;;;;;;10.56;100.00;96128.16;5075740;28;24489;-76
2023/04/19 10:39:49;;;;;;;12.55;9.10;;;;;;;10.90;100.00;96119.28;5068488;28;24454;-77
2023/04/19 10:42:16;;;;;;;10.57;8.60;;;;;;;10.80;100.00;96130.28;5081075;28;24450;-77
2023/04/19 10:44:42;;;;;;;13.55;9.15;;;;;;;10.73;100.00;96123.78;5089154;28;24546;-76
2023/04/19 10:47:10;;;;;;;12.38;9.07;;;;;;;10.56;100.00;96114.38;5072766;28;24825;-76
2023/04/19 10:49:45;;;;;;;10.30;9.30;;;;;;;10.26;100.00;96116.94;5075137;28;24431;-77
2023/04/19 10:52:28;;;;;;;11.27;10.05;;;;;;;10.22;100.00;96108.47;5078944;28;24520;-77
2023/04/19 10:54:56;;;;;;;10.80;9.50;;;;;;;10.50;100.00;96105.22;5078471;28;24445;-77
2023/04/19 10:57:24;;;;;;;11.45;9.98;;;;;;;10.86;100.00;96102.25;5079570;28;24446;-77
2023/04/19 11:00:19;;;;;;;11.43;9.40;;;;;;;10.63;100.00;96095.81;5058746;28;24496;-74
2023/04/19 11:02:47;;;;;;;13.63;10.00;;;;;;;10.52;100.00;96102.53;5063386;28;24438;-77
2023/04/19 11:05:14;;;;;;;12.75;9.73;;;;;;;10.47;100.00;96107.16;5053720;28;24511;-77
2023/04/19 11:07:42;;;;;;;10.32;8.90;;;;;;;10.44;100.00;96094.38;5056254;28;24501;-76
2023/04/19 11:10:10;;;;;;;9.93;8.93;;;;;;;10.87;100.00;96080.59;5057934;28;25332;-78
2023/04/19 11:12:36;;;;;;;9.40;8.40;;;;;;;10.77;100.00;96084.66;5073365;28;24931;-78
2023/04/19 11:15:08;;;;;;;9.90;8.73;;;;;;;10.64;100.00;96084.53;5060538;28;24809;-77
2023/04/19 11:17:36;;;;;;;10.35;8.43;;;;;;;10.81;100.00;96083.53;5065451;28;24432;-77
2023/04/19 11:20:07;;;;;;;10.63;8.13;;;;;;;10.66;100.00;96082.69;5067531;28;24443;-78
2023/04/19 11:22:35;;;;;;;9.40;8.40;;;;;;;11.05;100.00;96078.69;5077067;28;24500;-78
2023/04/19 11:25:06;;;;;;;11.90;9.20;;;;;;;10.68;100.00;96072.25;5067188;28;24438;-76
2023/04/19 11:27:33;;;;;;;9.45;8.55;;;;;;;11.01;100.00;96071.16;5072696;28;24441;-78